Time;durP1;ratioP1;P1;durP2;ratioP2;P2;SDS_P1;SDS_P2;PMS_P1;PMS_P2;Temp;Humidity;BMP_temperature;BMP_pressure;BME280_temperature;BME280_humidity;BME280_pressure;Samples;Min_cycle;Max_cycle;Signal;HPM_P1;HPM_P2
2022/12/16 00:00:28;;;;;;;33.22;14.63;;;;;;;-2.28;54.85;100910.00;5028308;28;20156;-65
2022/12/16 00:02:53;;;;;;;31.80;15.50;;;;;;;-2.24;54.65;100906.63;5027675;28;20208;-64
2022/12/16 00:05:19;;;;;;;25.58;14.25;;;;;;;-2.23;55.03;100913.47;5030488;28;20037;-64
2022/12/16 00:07:46;;;;;;;28.88;15.20;;;;;;;-2.08;54.84;100907.69;5042358;28;20048;-64
2022/12/16 00:10:12;;;;;;;32.80;14.73;;;;;;;-2.07;54.45;100916.22;5029278;28;20889;-66
2022/12/16 00:12:37;;;;;;;32.83;14.52;;;;;;;-2.11;54.60;100911.91;5042142;28;20143;-65
2022/12/16 00:15:03;;;;;;;27.10;13.95;;;;;;;-2.01;54.11;100919.72;5031894;28;20040;-66
2022/12/16 00:17:28;;;;;;;29.10;14.93;;;;;;;-1.77;53.85;100922.59;5027023;28;20092;-65
2022/12/16 00:19:54;;;;;;;29.77;15.65;;;;;;;-1.69;53.60;100926.94;5027223;28;20203;-65
2022/12/16 00:22:20;;;;;;;23.80;13.40;;;;;;;-1.63;53.41;100919.34;5023057;28;20145;-66
2022/12/16 00:24:45;;;;;;;30.05;13.77;;;;;;;-1.70;53.33;100924.38;5007116;28;20038;-65
2022/12/16 00:27:10;;;;;;;31.42;15.18;;;;;;;-1.72;53.36;100926.06;5011770;28;20124;-66
2022/12/16 00:29:36;;;;;;;25.77;13.85;;;;;;;-1.85;53.83;100928.47;5024223;28;20036;-65
2022/12/16 00:32:01;;;;;;;27.88;13.98;;;;;;;-2.01;54.18;100936.81;5033071;28;20075;-68
2022/12/16 00:34:27;;;;;;;27.05;13.88;;;;;;;-1.75;53.59;100936.28;5029361;28;20100;-66
2022/12/16 00:36:53;;;;;;;30.45;14.73;;;;;;;-1.67;53.03;100938.06;5024814;28;20041;-67
2022/12/16 00:39:19;;;;;;;26.70;14.45;;;;;;;-1.66;53.23;100932.13;5030617;28;20033;-67
2022/12/16 00:41:46;;;;;;;32.67;15.40;;;;;;;-1.68;53.24;100938.94;5027507;28;20539;-67
2022/12/16 00:44:12;;;;;;;29.48;14.20;;;;;;;-1.80;53.63;100943.91;5028841;28;20536;-66
2022/12/16 00:46:37;;;;;;;28.10;14.52;;;;;;;-1.70;53.14;100945.75;5026989;28;20065;-66
2022/12/16 00:49:03;;;;;;;30.13;16.13;;;;;;;-1.74;53.18;100945.69;5029827;28;20059;-67
2022/12/16 00:51:28;;;;;;;36.05;17.13;;;;;;;-1.94;53.52;100953.13;5028879;28;20068;-66
2022/12/16 00:53:54;;;;;;;30.88;13.23;;;;;;;-1.74;53.44;100954.22;5030714;28;20047;-65
2022/12/16 00:56:19;;;;;;;21.95;14.13;;;;;;;-1.75;53.04;100955.09;5028217;28;20048;-65
2022/12/16 00:58:45;;;;;;;30.15;14.85;;;;;;;-1.84;53.32;100958.38;5028773;28;20088;-67
2022/12/16 01:01:11;;;;;;;27.92;15.00;;;;;;;-1.84;53.72;100963.50;5028421;28;20585;-66
2022/12/16 01:03:37;;;;;;;34.42;14.57;;;;;;;-1.81;53.29;100963.53;5030506;28;20033;-67
2022/12/16 01:06:15;;;;;;;28.90;14.38;;;;;;;-1.81;53.70;100963.53;5027690;28;20036;-66
2022/12/16 01:08:47;;;;;;;26.27;13.90;;;;;;;-1.70;53.22;100956.00;5024155;28;20083;-65
2022/12/16 01:11:14;;;;;;;25.25;13.13;;;;;;;-1.66;53.30;100957.75;5042473;28;20040;-64
2022/12/16 01:13:40;;;;;;;23.35;13.10;;;;;;;-1.77;53.21;100958.47;5022077;28;20140;-65
2022/12/16 01:16:06;;;;;;;26.58;14.90;;;;;;;-1.75;53.10;100957.66;5027445;28;20714;-65
2022/12/16 01:18:31;;;;;;;28.70;13.85;;;;;;;-1.78;53.16;100961.84;5024445;28;20080;-65
2022/12/16 01:21:05;;;;;;;30.88;13.95;;;;;;;-1.82;53.37;100966.97;5027213;28;20037;-64
2022/12/16 01:23:30;;;;;;;27.17;14.45;;;;;;;-1.84;53.13;100976.31;5021835;28;20510;-66
2022/12/16 01:25:58;;;;;;;28.08;15.65;;;;;;;-1.81;52.72;100978.91;5024796;28;20036;-66
2022/12/16 01:28:23;;;;;;;30.58;14.82;;;;;;;-1.83;52.90;100978.03;5039897;28;20057;-64
2022/12/16 01:30:54;;;;;;;33.30;15.15;;;;;;;-1.84;52.85;100988.28;5024679;28;20048;-72
2022/12/16 01:33:19;;;;;;;30.35;15.52;;;;;;;-2.02;53.54;100989.75;5024007;28;20313;-64
2022/12/16 01:35:46;;;;;;;29.73;15.10;;;;;;;-1.88;53.26;100995.06;5039179;28;20033;-63
2022/12/16 01:38:14;;;;;;;30.63;14.60;;;;;;;-1.84;53.22;100999.38;5020856;28;20281;-65
2022/12/16 01:40:39;;;;;;;32.92;15.68;;;;;;;-1.93;53.20;101012.06;5025207;28;20037;-64
2022/12/16 01:43:13;;;;;;;28.02;14.52;;;;;;;-2.00;53.41;101010.25;5025974;28;20052;-63
2022/12/16 01:45:38;;;;;;;35.33;14.82;;;;;;;-2.09;53.59;101017.78;5023946;28;20036;-64
2022/12/16 01:48:21;;;;;;;34.30;14.90;;;;;;;-2.04;53.26;101021.31;5024860;28;20120;-65
2022/12/16 01:50:49;;;;;;;35.95;15.50;;;;;;;-1.95;52.98;101026.56;5024606;28;20040;-65
2022/12/16 01:53:15;;;;;;;33.20;14.57;;;;;;;-1.90;53.21;101024.06;5025553;28;20402;-65
2022/12/16 01:55:45;;;;;;;28.25;14.23;;;;;;;-1.78;52.82;101033.59;5024239;28;20440;-65
2022/12/16 01:58:15;;;;;;;37.78;15.07;;;;;;;-1.76;52.42;101035.34;5028062;28;20580;-68
2022/12/16 02:00:41;;;;;;;27.35;14.27;;;;;;;-1.71;52.63;101035.41;5023080;28;20090;-68
2022/12/16 02:03:08;;;;;;;31.60;15.48;;;;;;;-1.76;52.72;101034.50;5026626;28;20047;-68
2022/12/16 02:05:38;;;;;;;29.55;14.70;;;;;;;-1.68;52.63;101040.59;5023759;28;20041;-68
2022/12/16 02:08:14;;;;;;;34.72;15.77;;;;;;;-1.66;52.34;101036.34;5035783;28;20136;-69
2022/12/16 02:10:42;;;;;;;30.27;14.40;;;;;;;-1.75;52.54;101043.91;5018559;28;20037;-68
2022/12/16 02:13:45;;;;;;;34.75;13.98;;;;;;;-1.74;52.98;101048.19;5025860;28;20048;-66
2022/12/16 02:16:35;;;;;;;28.25;14.95;;;;;;;-1.82;52.92;101048.94;5030536;28;20029;-67
2022/12/16 02:19:16;;;;;;;31.35;16.02;;;;;;;-1.78;52.76;101039.59;5036991;28;20037;-69
2022/12/16 02:22:33;;;;;;;39.38;14.88;;;;;;;-1.83;52.75;101049.78;5030416;28;20040;-69
2022/12/16 02:25:04;;;;;;;32.72;15.20;;;;;;;-1.77;53.00;101045.59;5023136;28;20045;-69
2022/12/16 02:27:58;;;;;;;30.73;15.00;;;;;;;-1.68;52.95;101051.69;5028730;28;20037;-68
2022/12/16 02:30:37;;;;;;;40.00;16.90;;;;;;;-1.72;52.81;101043.94;5045077;28;20037;-69
2022/12/16 02:33:17;;;;;;;35.53;16.38;;;;;;;-1.68;52.95;101049.13;5016367;28;20056;-69
2022/12/16 02:35:55;;;;;;;29.80;15.60;;;;;;;-1.63;52.67;101051.75;5027548;28;20099;-66
2022/12/16 02:38:26;;;;;;;28.73;16.13;;;;;;;-1.60;52.97;101054.34;5028249;28;20289;-66
2022/12/16 02:41:05;;;;;;;21.73;10.32;;;;;;;-1.58;52.75;101055.22;5029764;28;20052;-68
2022/12/16 02:43:54;;;;;;;31.98;15.50;;;;;;;-1.57;52.64;101049.28;5027273;28;20087;-69
2022/12/16 02:46:24;;;;;;;27.05;15.40;;;;;;;-1.55;52.71;101055.28;5044371;28;20072;-69
2022/12/16 02:48:50;;;;;;;33.75;15.07;;;;;;;-1.53;52.84;101053.63;5028588;28;20061;-69
2022/12/16 02:51:16;;;;;;;31.50;14.90;;;;;;;-1.54;52.93;101061.28;5027763;28;20079;-63
2022/12/16 02:53:45;;;;;;;38.63;16.60;;;;;;;-1.56;52.93;101062.94;5029489;28;20468;-64
2022/12/16 02:56:35;;;;;;;33.85;14.90;;;;;;;-1.62;52.75;101056.03;5030461;28;20392;-64
2022/12/16 02:59:34;;;;;;;34.53;17.35;;;;;;;-1.69;53.09;101052.53;5035213;28;20258;-64
2022/12/16 03:02:25;;;;;;;37.65;18.20;;;;;;;-1.81;53.66;101055.78;5028915;28;20080;-64
2022/12/16 03:05:00;;;;;;;33.10;16.70;;;;;;;-1.88;53.85;101064.22;5025674;28;20226;-64
2022/12/16 03:07:28;;;;;;;34.20;15.93;;;;;;;-1.79;53.95;101073.75;5044025;28;20055;-66
2022/12/16 03:09:55;;;;;;;40.05;16.85;;;;;;;-1.71;53.57;101072.16;5026849;28;20045;-65
2022/12/16 03:12:22;;;;;;;37.90;17.40;;;;;;;-1.70;53.11;101080.72;5025852;28;20037;-65
2022/12/16 03:14:50;;;;;;;32.45;15.55;;;;;;;-1.69;53.34;101085.00;5028713;28;20026;-64
2022/12/16 03:17:19;;;;;;;35.08;15.52;;;;;;;-1.72;53.78;101083.25;5028893;28;20084;-64
2022/12/16 03:19:52;;;;;;;41.80;16.35;;;;;;;-1.70;53.92;101094.38;5029394;28;20106;-64
2022/12/16 03:22:22;;;;;;;35.13;17.45;;;;;;;-1.71;53.81;101089.22;5028005;28;20061;-65
2022/12/16 03:24:48;;;;;;;35.15;15.82;;;;;;;-1.76;53.76;101094.28;5027955;28;20033;-74
2022/12/16 03:27:32;;;;;;;32.97;15.63;;;;;;;-1.67;53.74;101096.13;5027725;28;20052;-74
2022/12/16 03:30:05;;;;;;;34.03;14.93;;;;;;;-1.64;54.01;101102.16;5042494;28;20025;-73
2022/12/16 03:32:38;;;;;;;36.20;16.85;;;;;;;-1.60;53.86;101101.38;5040730;28;20621;-73
2022/12/16 03:35:20;;;;;;;38.97;15.52;;;;;;;-1.60;53.84;101103.94;5029568;28;20041;-74
2022/12/16 03:37:50;;;;;;;29.58;15.35;;;;;;;-1.64;54.14;101114.97;5027063;28;20049;-73
2022/12/16 03:40:16;;;;;;;41.75;17.35;;;;;;;-1.60;53.85;101116.75;5027645;28;20037;-73
2022/12/16 03:42:43;;;;;;;44.10;18.90;;;;;;;-1.58;54.20;101111.63;5026507;28;20457;-73
2022/12/16 03:45:12;;;;;;;44.65;17.27;;;;;;;-1.62;54.18;101122.66;5030945;28;20045;-73
2022/12/16 03:47:38;;;;;;;39.45;15.90;;;;;;;-1.58;54.21;101114.19;5027558;28;20053;-73
2022/12/16 03:50:07;;;;;;;38.63;16.40;;;;;;;-1.55;54.28;101118.50;5030006;28;20193;-65
2022/12/16 03:52:35;;;;;;;40.72;16.48;;;;;;;-1.59;54.25;101125.28;5023537;28;20052;-66
2022/12/16 03:55:01;;;;;;;40.45;18.48;;;;;;;-1.57;54.34;101125.31;5030191;28;20099;-65
2022/12/16 03:57:26;;;;;;;34.08;15.02;;;;;;;-1.58;54.24;101134.69;5026629;28;20135;-64
2022/12/16 03:59:52;;;;;;;41.47;17.05;;;;;;;-1.57;54.37;101128.75;5028557;28;20029;-64
2022/12/16 04:02:17;;;;;;;36.38;18.60;;;;;;;-1.55;54.58;101131.31;5027468;28;20052;-63
2022/12/16 04:04:42;;;;;;;40.88;17.92;;;;;;;-1.52;54.52;101134.78;5034361;28;20063;-63
2022/12/16 04:07:20;;;;;;;38.67;15.88;;;;;;;-1.50;54.54;101148.50;5025505;28;20506;-64
2022/12/16 04:09:49;;;;;;;31.75;16.00;;;;;;;-1.49;54.48;101151.91;5026925;28;20055;-63
2022/12/16 04:26:03;;;;;;;40.10;16.80;;;;;;;-1.51;54.99;101157.03;5027123;28;20613;-64
2022/12/16 04:28:29;;;;;;;38.03;17.45;;;;;;;-1.45;54.42;101159.66;5027380;28;20043;-65
2022/12/16 04:30:55;;;;;;;36.08;16.85;;;;;;;-1.44;54.27;101153.72;5040683;28;20432;-66
